createdAt,value
2018-12-15T00:02:17.926Z,2.10
2018-12-15T00:04:45.368Z,2.10
2018-12-15T00:07:12.823Z,2.20
2018-12-15T00:09:40.297Z,2.10
2018-12-15T00:12:07.746Z,2.00
2018-12-15T00:14:35.195Z,2.00
2018-12-15T00:17:05.641Z,1.90
2018-12-15T00:19:32.182Z,1.80
2018-12-15T00:21:59.625Z,1.80
2018-12-15T00:24:27.062Z,1.80
2018-12-15T00:26:54.498Z,1.80
2018-12-15T00:29:22.351Z,1.90
2018-12-15T00:31:49.805Z,1.80
2018-12-15T00:34:17.302Z,1.90
2018-12-15T00:36:44.742Z,1.90
2018-12-15T00:39:12.262Z,1.90
2018-12-15T00:41:39.722Z,1.90
2018-12-15T00:44:07.157Z,1.90
2018-12-15T00:46:34.611Z,1.90
2018-12-15T00:49:02.066Z,2.00
2018-12-15T00:51:29.510Z,2.00
2018-12-15T00:53:56.946Z,2.10
2018-12-15T00:56:24.394Z,2.10
2018-12-15T00:58:51.846Z,2.10
2018-12-15T01:01:19.283Z,2.20
2018-12-15T01:03:46.710Z,2.20
2018-12-15T01:06:14.151Z,2.20
2018-12-15T01:08:41.591Z,2.10
2018-12-15T01:11:09.023Z,2.20
2018-12-15T01:13:36.499Z,2.10
2018-12-15T01:16:03.946Z,2.10
2018-12-15T01:18:31.383Z,2.10
2018-12-15T01:20:58.827Z,2.00
2018-12-15T01:23:26.264Z,2.00
2018-12-15T01:25:53.701Z,2.00
2018-12-15T01:28:21.137Z,2.10
2018-12-15T01:30:48.562Z,2.10
2018-12-15T01:33:16.000Z,2.10
2018-12-15T01:35:43.446Z,2.10
2018-12-15T01:38:10.920Z,2.10
2018-12-15T01:40:38.411Z,2.20
2018-12-15T01:43:05.839Z,2.20
2018-12-15T01:45:33.878Z,2.30
2018-12-15T01:48:01.326Z,2.20
2018-12-15T01:50:28.774Z,2.20
2018-12-15T01:52:56.214Z,2.20
2018-12-15T01:55:23.698Z,2.10
2018-12-15T01:57:51.136Z,2.10
2018-12-15T02:00:18.571Z,2.00
2018-12-15T02:02:46.046Z,2.00
2018-12-15T02:05:13.489Z,2.10
2018-12-15T02:07:40.926Z,2.20
2018-12-15T02:10:08.476Z,2.20
2018-12-15T02:12:36.009Z,2.20
2018-12-15T02:15:04.139Z,2.20
2018-12-15T02:17:33.804Z,2.10
2018-12-15T02:20:01.223Z,1.90
2018-12-15T02:22:28.678Z,1.90
2018-12-15T02:24:56.195Z,1.90
2018-12-15T02:27:23.648Z,1.90
2018-12-15T02:29:51.073Z,2.00
2018-12-15T02:32:18.515Z,1.80
2018-12-15T02:34:45.946Z,1.80
2018-12-15T02:37:13.378Z,1.80
2018-12-15T02:39:40.823Z,1.80
2018-12-15T02:42:08.359Z,1.80
2018-12-15T02:44:35.819Z,1.80
2018-12-15T02:47:03.331Z,1.70
2018-12-15T02:49:30.777Z,1.80
2018-12-15T02:51:58.227Z,2.00
2018-12-15T02:54:25.666Z,2.00
2018-12-15T02:56:53.137Z,2.10
2018-12-15T02:59:20.578Z,2.10
2018-12-15T03:01:48.023Z,2.10
2018-12-15T03:04:15.470Z,2.10
2018-12-15T03:06:42.914Z,2.10
2018-12-15T03:09:10.375Z,2.00
2018-12-15T03:11:37.832Z,2.10
2018-12-15T03:14:05.274Z,2.10
2018-12-15T03:16:32.714Z,2.10
2018-12-15T03:19:04.946Z,2.10
2018-12-15T03:21:32.386Z,2.00
2018-12-15T03:23:59.913Z,1.90
2018-12-15T03:26:27.442Z,2.00
2018-12-15T03:28:54.894Z,2.00
2018-12-15T03:31:22.350Z,2.00
2018-12-15T03:33:49.801Z,2.10
2018-12-15T03:36:17.318Z,2.00
2018-12-15T03:38:44.746Z,1.90
2018-12-15T03:41:12.242Z,2.00
2018-12-15T03:43:39.658Z,1.90
2018-12-15T03:46:07.898Z,2.00
2018-12-15T03:48:35.355Z,2.10
2018-12-15T03:51:02.799Z,2.10
2018-12-15T03:53:30.246Z,2.10
2018-12-15T03:55:57.691Z,2.00
2018-12-15T03:58:25.128Z,2.00
2018-12-15T04:00:52.560Z,1.90
2018-12-15T04:03:20.004Z,1.90
2018-12-15T04:05:47.446Z,2.00
2018-12-15T04:08:14.907Z,2.10
2018-12-15T04:10:42.425Z,2.10
2018-12-15T04:13:09.864Z,2.10
2018-12-15T04:15:37.411Z,2.00
2018-12-15T04:18:04.875Z,1.90
2018-12-15T04:20:32.404Z,2.00
2018-12-15T04:22:59.869Z,2.00
2018-12-15T04:25:27.310Z,1.90
2018-12-15T04:27:54.738Z,1.90
2018-12-15T04:30:22.193Z,1.90
2018-12-15T04:32:49.634Z,1.90
2018-12-15T04:35:17.082Z,1.90
2018-12-15T04:37:44.536Z,1.80
2018-12-15T04:40:12.000Z,1.80
2018-12-15T04:42:39.450Z,1.70
2018-12-15T04:45:06.905Z,1.80
2018-12-15T04:47:34.354Z,1.70
2018-12-15T04:50:01.871Z,1.70
2018-12-15T04:52:29.398Z,1.80
2018-12-15T04:54:56.838Z,1.80
2018-12-15T04:57:24.275Z,1.90
2018-12-15T04:59:51.707Z,1.90
2018-12-15T05:02:19.156Z,1.90
2018-12-15T05:04:46.606Z,1.80
2018-12-15T05:07:14.047Z,1.90
2018-12-15T05:09:42.344Z,1.80
2018-12-15T05:12:09.767Z,1.80
2018-12-15T05:14:37.557Z,1.80
2018-12-15T05:17:04.991Z,1.90
2018-12-15T05:19:32.430Z,1.90
2018-12-15T05:21:59.874Z,1.90
2018-12-15T05:24:27.298Z,1.90
2018-12-15T05:26:54.736Z,1.90
2018-12-15T05:29:22.176Z,1.90
2018-12-15T05:31:49.624Z,1.90
2018-12-15T05:34:17.063Z,1.90
2018-12-15T05:36:44.503Z,2.00
2018-12-15T05:39:11.934Z,2.00
2018-12-15T05:41:39.373Z,2.00
2018-12-15T05:44:07.241Z,2.00
2018-12-15T05:46:34.651Z,2.00
2018-12-15T05:49:02.080Z,2.00
2018-12-15T05:51:29.521Z,2.00
2018-12-15T05:53:56.954Z,2.00
2018-12-15T05:56:24.492Z,2.10
2018-12-15T05:58:51.922Z,2.00
2018-12-15T06:01:19.354Z,1.90
2018-12-15T06:03:46.778Z,1.80
2018-12-15T06:06:14.215Z,1.80
2018-12-15T06:08:41.654Z,1.80
2018-12-15T06:11:09.095Z,1.70
2018-12-15T06:13:36.546Z,1.70
2018-12-15T06:16:03.995Z,1.70
2018-12-15T06:18:31.860Z,1.60
2018-12-15T06:20:59.499Z,1.60
2018-12-15T06:23:26.939Z,1.60
2018-12-15T06:25:54.372Z,1.50
2018-12-15T06:28:21.880Z,1.50
2018-12-15T06:30:49.346Z,1.50
2018-12-15T06:33:16.894Z,1.50
2018-12-15T06:35:44.312Z,1.40
2018-12-15T06:38:11.757Z,1.50
2018-12-15T06:40:39.197Z,1.50
2018-12-15T06:43:06.632Z,1.40
2018-12-15T06:45:34.075Z,1.40
2018-12-15T06:48:01.514Z,1.50
2018-12-15T06:50:28.963Z,1.50
2018-12-15T06:52:56.409Z,1.50
2018-12-15T06:55:24.826Z,1.50
2018-12-15T06:57:52.332Z,1.50
2018-12-15T07:00:19.782Z,1.60
2018-12-15T07:02:47.235Z,1.50
2018-12-15T07:05:14.678Z,1.50
2018-12-15T07:07:42.126Z,1.60
2018-12-15T07:10:09.578Z,1.60
2018-12-15T07:12:37.022Z,1.50
2018-12-15T07:15:05.167Z,1.50
2018-12-15T07:17:32.611Z,1.50
2018-12-15T07:20:00.047Z,1.60
2018-12-15T07:22:27.491Z,1.60
2018-12-15T07:24:54.931Z,1.60
2018-12-15T07:27:22.362Z,1.50
2018-12-15T07:29:49.810Z,1.50
2018-12-15T07:32:17.248Z,1.50
2018-12-15T07:34:44.687Z,1.50
2018-12-15T07:37:12.167Z,1.50
2018-12-15T07:39:39.694Z,1.50
2018-12-15T07:42:07.135Z,1.60
2018-12-15T07:44:34.585Z,1.60
2018-12-15T07:47:02.028Z,1.60
2018-12-15T07:49:30.326Z,1.70
2018-12-15T07:51:57.763Z,1.60
2018-12-15T07:54:25.207Z,1.60
2018-12-15T07:56:52.648Z,1.60
2018-12-15T07:59:20.097Z,1.60
2018-12-15T08:01:47.538Z,1.60
2018-12-15T08:04:14.994Z,1.60
2018-12-15T08:06:42.426Z,1.60
2018-12-15T08:09:11.279Z,1.60
2018-12-15T08:11:44.582Z,1.60
2018-12-15T08:14:12.141Z,1.50
2018-12-15T08:16:39.593Z,1.50
2018-12-15T08:19:07.090Z,1.60
2018-12-15T08:21:34.535Z,1.60
2018-12-15T08:24:01.993Z,1.60
2018-12-15T08:26:29.425Z,1.70
2018-12-15T08:28:56.862Z,1.70
2018-12-15T08:31:24.317Z,1.60
2018-12-15T08:33:51.755Z,1.70
2018-12-15T08:36:19.203Z,1.80
2018-12-15T08:38:46.646Z,1.80
2018-12-15T08:41:14.082Z,1.80
2018-12-15T08:43:42.122Z,1.90
2018-12-15T08:46:11.476Z,1.80
2018-12-15T08:48:38.915Z,1.70
2018-12-15T08:51:06.373Z,1.80
2018-12-15T08:53:33.810Z,1.80
2018-12-15T08:56:01.238Z,1.80
2018-12-15T08:58:28.678Z,1.90
2018-12-15T09:00:56.135Z,1.90
2018-12-15T09:03:23.573Z,2.00
2018-12-15T09:05:51.023Z,2.00
2018-12-15T09:08:18.451Z,2.00
2018-12-15T09:10:45.886Z,1.90
2018-12-15T09:13:13.323Z,1.90
2018-12-15T09:15:40.763Z,2.00
2018-12-15T09:18:09.729Z,2.00
2018-12-15T09:20:37.357Z,2.10
2018-12-15T09:23:04.784Z,2.10
2018-12-15T09:25:32.238Z,2.10
2018-12-15T09:27:59.669Z,2.10
2018-12-15T09:30:27.111Z,2.10
2018-12-15T09:32:54.546Z,2.00
2018-12-15T09:35:22.006Z,2.10
2018-12-15T09:37:49.438Z,2.10
2018-12-15T09:40:16.881Z,2.10
2018-12-15T09:42:44.337Z,2.00
2018-12-15T09:45:11.766Z,2.00
2018-12-15T09:47:39.213Z,2.00
2018-12-15T09:50:06.656Z,2.10
2018-12-15T09:52:34.179Z,2.20
2018-12-15T09:55:01.674Z,2.30
2018-12-15T09:57:29.175Z,2.30
2018-12-15T09:59:56.623Z,2.40
2018-12-15T10:02:24.079Z,2.40
2018-12-15T10:04:53.598Z,2.40
2018-12-15T10:07:21.094Z,2.40
2018-12-15T10:09:48.538Z,2.30
2018-12-15T10:12:15.990Z,2.30
2018-12-15T10:14:43.722Z,2.30
2018-12-15T10:17:11.162Z,2.30
2018-12-15T10:19:38.598Z,2.30
2018-12-15T10:22:06.051Z,2.40
2018-12-15T10:24:33.479Z,2.40
2018-12-15T10:27:00.918Z,2.30
2018-12-15T10:32:35.394Z,2.30
2018-12-15T10:35:02.852Z,2.40
2018-12-15T10:37:30.293Z,2.50
2018-12-15T10:39:57.787Z,2.40
2018-12-15T10:42:25.250Z,2.40
2018-12-15T10:44:53.235Z,2.30
2018-12-15T10:47:20.680Z,2.40
2018-12-15T10:49:48.118Z,2.40
2018-12-15T10:52:15.567Z,2.50
2018-12-15T10:54:43.016Z,2.50
2018-12-15T10:57:10.465Z,2.60
2018-12-15T10:59:37.901Z,2.70
2018-12-15T11:02:05.346Z,2.80
2018-12-15T11:04:32.774Z,2.70
2018-12-15T11:07:00.226Z,2.60
2018-12-15T11:09:27.660Z,2.50
2018-12-15T11:11:55.107Z,2.60
2018-12-15T11:14:22.534Z,2.70
2018-12-15T11:16:49.975Z,2.70
2018-12-15T11:19:17.497Z,2.80
2018-12-15T11:21:45.087Z,2.70
2018-12-15T11:24:12.539Z,2.80
2018-12-15T11:26:40.022Z,2.80
2018-12-15T11:29:07.458Z,2.80
2018-12-15T11:31:34.893Z,2.80
2018-12-15T11:34:02.354Z,2.80
2018-12-15T11:36:29.787Z,2.90
2018-12-15T11:38:57.225Z,3.00
2018-12-15T11:41:24.680Z,3.10
2018-12-15T11:43:52.128Z,3.10
2018-12-15T11:46:19.580Z,3.00
2018-12-15T11:48:47.015Z,2.80
2018-12-15T11:51:14.458Z,2.80
2018-12-15T11:53:41.902Z,2.80
2018-12-15T11:56:09.342Z,2.80
2018-12-15T11:58:36.794Z,2.70
2018-12-15T12:01:04.247Z,2.80
2018-12-15T12:03:31.697Z,2.80
2018-12-15T12:05:59.195Z,2.80
2018-12-15T12:08:26.638Z,2.80
2018-12-15T12:10:54.079Z,2.90
2018-12-15T12:13:21.527Z,2.80
2018-12-15T12:15:48.950Z,2.70
2018-12-15T12:18:16.383Z,2.60
2018-12-15T12:20:43.825Z,2.70
2018-12-15T12:23:11.280Z,2.60
2018-12-15T12:25:38.715Z,2.50
2018-12-15T12:28:06.202Z,2.50
2018-12-15T12:30:33.650Z,2.60
2018-12-15T12:33:01.103Z,2.50
2018-12-15T12:35:28.650Z,2.60
2018-12-15T12:37:56.094Z,2.70
2018-12-15T12:40:23.530Z,2.70
2018-12-15T12:42:50.983Z,2.70
2018-12-15T12:45:18.440Z,2.70
2018-12-15T12:47:46.132Z,2.60
2018-12-15T12:50:13.555Z,2.40
2018-12-15T12:52:40.994Z,2.40
2018-12-15T12:55:08.542Z,2.40
2018-12-15T12:57:36.069Z,2.30
2018-12-15T13:00:03.799Z,2.20
2018-12-15T13:02:31.249Z,2.30
2018-12-15T13:04:58.713Z,2.30
2018-12-15T13:07:26.155Z,2.30
2018-12-15T13:09:53.605Z,2.30
2018-12-15T13:12:21.042Z,2.30
2018-12-15T13:14:48.506Z,2.40
2018-12-15T13:17:16.327Z,2.30
2018-12-15T13:19:43.742Z,2.10
2018-12-15T13:22:11.212Z,2.00
2018-12-15T13:24:38.754Z,2.10
2018-12-15T13:27:06.200Z,2.10
2018-12-15T13:29:33.626Z,2.10
2018-12-15T13:32:01.059Z,2.10
2018-12-15T13:34:28.498Z,2.00
2018-12-15T13:36:55.946Z,1.90
2018-12-15T13:39:23.374Z,1.90
2018-12-15T13:41:50.920Z,2.00
2018-12-15T13:44:18.350Z,2.10
2018-12-15T13:46:45.800Z,2.00
2018-12-15T13:49:13.234Z,2.00
2018-12-15T13:51:40.678Z,2.00
2018-12-15T13:54:08.695Z,2.00
2018-12-15T13:56:36.148Z,2.00
2018-12-15T13:59:03.603Z,2.00
2018-12-15T14:01:31.051Z,2.10
2018-12-15T14:03:58.503Z,2.10
2018-12-15T14:06:25.971Z,2.20
2018-12-15T14:08:53.395Z,2.20
2018-12-15T14:11:20.847Z,2.00
2018-12-15T14:13:48.385Z,2.00
2018-12-15T14:16:15.810Z,2.00
2018-12-15T14:18:43.254Z,2.00
2018-12-15T14:21:10.876Z,2.00
2018-12-15T14:23:38.346Z,1.90
2018-12-15T14:26:06.469Z,1.80
2018-12-15T14:28:33.929Z,1.80
2018-12-15T14:31:01.374Z,1.70
2018-12-15T14:33:28.825Z,1.70
2018-12-15T14:35:56.386Z,1.70
2018-12-15T14:38:23.822Z,1.80
2018-12-15T14:40:51.266Z,1.80
2018-12-15T14:43:18.710Z,1.70
2018-12-15T14:45:46.142Z,1.70
2018-12-15T14:48:13.594Z,1.70
2018-12-15T14:50:41.131Z,1.70
2018-12-15T14:53:08.588Z,1.70
2018-12-15T14:55:36.028Z,1.70
2018-12-15T14:58:03.573Z,1.70
2018-12-15T15:00:30.983Z,1.60
2018-12-15T15:02:58.432Z,1.70
2018-12-15T15:05:25.861Z,1.70
2018-12-15T15:07:53.315Z,1.70
2018-12-15T15:10:20.774Z,1.70
2018-12-15T15:12:48.262Z,1.60
2018-12-15T15:15:15.794Z,1.60
2018-12-15T15:17:43.258Z,1.70
2018-12-15T15:20:10.926Z,1.70
2018-12-15T15:22:38.380Z,1.80
2018-12-15T15:25:06.031Z,1.80
2018-12-15T15:27:33.482Z,1.80
2018-12-15T15:30:00.932Z,1.80
2018-12-15T15:32:28.391Z,1.70
2018-12-15T15:34:55.831Z,1.70
2018-12-15T15:37:23.266Z,1.80
2018-12-15T15:39:50.795Z,1.90
2018-12-15T15:42:18.227Z,1.80
2018-12-15T15:44:45.669Z,1.70
2018-12-15T15:47:13.115Z,1.70
2018-12-15T15:49:40.546Z,1.70
2018-12-15T15:52:07.978Z,1.80
2018-12-15T15:54:35.415Z,1.70
2018-12-15T15:57:02.871Z,1.70
2018-12-15T15:59:30.316Z,1.70
2018-12-15T16:01:57.749Z,1.70
2018-12-15T16:04:25.190Z,1.80
2018-12-15T16:06:52.693Z,1.80
2018-12-15T16:09:20.138Z,1.80
2018-12-15T16:11:47.567Z,1.80
2018-12-15T16:14:15.006Z,1.70
2018-12-15T16:16:42.438Z,1.60
2018-12-15T16:19:09.865Z,1.60
2018-12-15T16:21:37.407Z,1.60
2018-12-15T16:24:04.936Z,1.60
2018-12-15T16:26:32.394Z,1.60
2018-12-15T16:29:00.689Z,1.60
2018-12-15T16:31:28.530Z,1.60
2018-12-15T16:33:56.343Z,1.60
2018-12-15T16:36:23.783Z,1.70
2018-12-15T16:38:51.227Z,1.70
2018-12-15T16:41:18.735Z,1.70
2018-12-15T16:43:46.186Z,1.70
2018-12-15T16:46:13.738Z,1.60
2018-12-15T16:48:41.197Z,1.60
2018-12-15T16:51:08.658Z,1.60
2018-12-15T16:53:36.107Z,1.50
2018-12-15T16:56:03.669Z,1.50
2018-12-15T16:58:31.118Z,1.40
2018-12-15T17:00:58.633Z,1.40
2018-12-15T17:03:30.466Z,1.40
2018-12-15T17:05:55.523Z,1.40
2018-12-15T17:08:22.954Z,1.40
2018-12-15T17:10:50.642Z,1.40
2018-12-15T17:13:19.702Z,1.40
2018-12-15T17:15:47.224Z,1.40
2018-12-15T17:18:14.750Z,1.40
2018-12-15T17:20:44.235Z,1.40
2018-12-15T17:23:11.999Z,1.30
2018-12-15T17:25:39.467Z,1.40
2018-12-15T17:28:06.920Z,1.40
2018-12-15T17:30:34.358Z,1.50
2018-12-15T17:35:37.137Z,1.40
2018-12-15T17:38:04.589Z,1.30
2018-12-15T17:40:32.026Z,1.30
2018-12-15T17:42:59.569Z,1.30
2018-12-15T17:45:27.013Z,1.40
2018-12-15T17:47:54.468Z,1.40
2018-12-15T17:50:21.939Z,1.40
2018-12-15T17:52:49.402Z,1.30
2018-12-15T17:55:16.867Z,1.40
2018-12-15T17:57:44.410Z,1.40
2018-12-15T18:00:12.102Z,1.30
2018-12-15T18:02:39.570Z,1.40
2018-12-15T18:05:07.293Z,1.40
2018-12-15T18:07:34.755Z,1.50
2018-12-15T18:10:02.246Z,1.50
2018-12-15T18:12:29.690Z,1.50
2018-12-15T18:14:57.145Z,1.50
2018-12-15T18:17:24.575Z,1.50
2018-12-15T18:19:52.085Z,1.50
2018-12-15T18:22:19.558Z,1.40
2018-12-15T18:24:47.002Z,1.40
2018-12-15T18:27:14.494Z,1.50
2018-12-15T18:29:42.026Z,1.50
2018-12-15T18:32:09.514Z,1.50
2018-12-15T18:34:37.750Z,1.50
2018-12-15T18:37:05.242Z,1.60
2018-12-15T18:39:32.683Z,1.50
2018-12-15T18:42:00.443Z,1.50
2018-12-15T18:44:27.971Z,1.60
2018-12-15T18:46:55.426Z,1.50
2018-12-15T18:49:22.872Z,1.50
2018-12-15T18:51:50.322Z,1.40
2018-12-15T18:54:17.843Z,1.40
2018-12-15T18:56:45.487Z,1.50
2018-12-15T18:59:13.234Z,1.50
2018-12-15T19:01:40.678Z,1.50
2018-12-15T19:04:08.514Z,1.60
2018-12-15T19:06:35.951Z,1.50
2018-12-15T19:09:05.594Z,1.40
2018-12-15T19:11:33.035Z,1.50
2018-12-15T19:14:00.474Z,1.50
2018-12-15T19:16:27.909Z,1.40
2018-12-15T19:18:55.570Z,1.50
2018-12-15T19:21:23.214Z,1.40
2018-12-15T19:23:50.735Z,1.50
2018-12-15T19:26:18.174Z,1.60
2018-12-15T19:28:45.633Z,1.50
2018-12-15T19:31:13.181Z,1.50
2018-12-15T19:33:40.618Z,1.50
2018-12-15T19:36:08.115Z,1.50
2018-12-15T19:38:35.527Z,1.50
2018-12-15T19:43:36.974Z,1.60
2018-12-15T19:46:04.475Z,1.60
2018-12-15T19:48:31.924Z,1.60
2018-12-15T19:50:59.362Z,1.70
2018-12-15T19:53:26.828Z,1.70
2018-12-15T19:55:54.291Z,1.70
2018-12-15T19:58:21.724Z,1.70
2018-12-15T20:00:49.210Z,1.70
2018-12-15T20:03:16.661Z,1.70
2018-12-15T20:05:44.098Z,1.70
2018-12-15T20:08:11.550Z,1.70
2018-12-15T20:10:39.616Z,1.70
2018-12-15T20:13:07.053Z,1.70
2018-12-15T20:15:34.574Z,1.70
2018-12-15T20:18:02.038Z,1.70
2018-12-15T20:20:29.487Z,1.60
2018-12-15T20:22:56.940Z,1.60
2018-12-15T20:25:24.379Z,1.50
2018-12-15T20:27:52.118Z,1.50
2018-12-15T20:30:19.603Z,1.60
2018-12-15T20:32:47.059Z,1.60
2018-12-15T20:35:14.504Z,1.60
2018-12-15T20:37:41.939Z,1.60
2018-12-15T20:40:09.374Z,1.60
2018-12-15T20:42:36.833Z,1.60
2018-12-15T20:45:04.867Z,1.60
2018-12-15T20:47:32.302Z,1.60
2018-12-15T20:49:59.767Z,1.60
2018-12-15T20:52:27.223Z,1.60
2018-12-15T20:54:54.693Z,1.60
2018-12-15T20:57:22.127Z,1.60
2018-12-15T20:59:49.550Z,1.50
2018-12-15T21:02:16.989Z,1.50
2018-12-15T21:04:45.222Z,1.50
2018-12-15T21:07:12.668Z,1.60
2018-12-15T21:09:40.311Z,1.60
2018-12-15T21:12:07.739Z,1.70
2018-12-15T21:14:35.179Z,1.70
2018-12-15T21:17:02.640Z,1.70
2018-12-15T21:19:30.163Z,1.70
2018-12-15T21:21:57.616Z,1.70
2018-12-15T21:24:25.088Z,1.70
2018-12-15T21:26:53.046Z,1.60
2018-12-15T21:29:20.504Z,1.60
2018-12-15T21:31:48.039Z,1.50
2018-12-15T21:34:15.830Z,-2.00
2018-12-15T21:36:43.251Z,1.50
2018-12-15T21:39:10.698Z,1.40
2018-12-15T21:41:38.203Z,1.50
2018-12-15T21:44:05.656Z,1.50
2018-12-15T21:46:33.181Z,1.40
2018-12-15T21:49:00.667Z,1.40
2018-12-15T21:51:28.206Z,1.40
2018-12-15T21:53:56.658Z,1.40
2018-12-15T21:56:24.130Z,1.30
2018-12-15T21:58:51.791Z,1.30
2018-12-15T22:01:19.226Z,1.30
2018-12-15T22:03:46.742Z,1.20
2018-12-15T22:06:14.203Z,1.20
2018-12-15T22:08:41.658Z,1.10
2018-12-15T22:11:09.101Z,1.10
2018-12-15T22:13:36.581Z,1.10
2018-12-15T22:16:04.198Z,1.00
2018-12-15T22:18:31.781Z,1.00
2018-12-15T22:20:59.423Z,1.00
2018-12-15T22:23:26.871Z,1.00
2018-12-15T22:25:54.358Z,0.90
2018-12-15T22:28:21.812Z,0.90
2018-12-15T22:30:49.251Z,0.80
2018-12-15T22:33:16.695Z,0.80
2018-12-15T22:35:44.147Z,0.90
2018-12-15T22:38:11.735Z,0.80
2018-12-15T22:40:39.184Z,0.80
2018-12-15T22:43:06.632Z,0.80
2018-12-15T22:45:34.066Z,0.70
2018-12-15T22:48:01.505Z,0.70
2018-12-15T22:50:28.950Z,0.70
2018-12-15T22:52:56.386Z,0.70
2018-12-15T22:55:23.825Z,0.60
2018-12-15T22:57:51.276Z,0.70
2018-12-15T23:00:18.726Z,0.70
2018-12-15T23:02:46.160Z,0.70
2018-12-15T23:05:13.607Z,0.70
2018-12-15T23:07:41.042Z,0.60
2018-12-15T23:10:08.494Z,0.60
2018-12-15T23:12:35.959Z,0.60
2018-12-15T23:15:04.207Z,0.50
2018-12-15T23:17:31.626Z,0.50
2018-12-15T23:19:59.066Z,0.40
2018-12-15T23:22:26.500Z,0.40
2018-12-15T23:24:53.945Z,0.40
2018-12-15T23:27:21.390Z,0.30
2018-12-15T23:29:48.838Z,0.30
2018-12-15T23:32:16.292Z,0.30
2018-12-15T23:34:43.747Z,0.20
2018-12-15T23:37:11.262Z,0.20
2018-12-15T23:39:38.698Z,0.10
2018-12-15T23:42:06.138Z,0.20
2018-12-15T23:44:33.586Z,0.20
2018-12-15T23:47:01.045Z,0.20
2018-12-15T23:49:28.499Z,0.20
2018-12-15T23:51:55.937Z,0.20
2018-12-15T23:54:23.386Z,0.30
2018-12-15T23:56:50.829Z,0.30
2018-12-15T23:59:18.271Z,0.20
